sensor_id;sensor_type;location;lat;lon;timestamp;P1;durP1;ratioP1;P2;durP2;ratioP2
19030;SDS011;9648;51.130;13.978;2023-04-15T00:01:07;3.38;;;3.08;;
19030;SDS011;9648;51.130;13.978;2023-04-15T00:03:35;3.20;;;2.83;;
19030;SDS011;9648;51.130;13.978;2023-04-15T00:06:02;5.00;;;3.10;;
19030;SDS011;9648;51.130;13.978;2023-04-15T00:08:29;2.92;;;2.63;;
19030;SDS011;9648;51.130;13.978;2023-04-15T00:10:57;3.10;;;2.80;;
19030;SDS011;9648;51.130;13.978;2023-04-15T00:13:26;2.60;;;2.40;;
19030;SDS011;9648;51.130;13.978;2023-04-15T00:15:53;2.78;;;2.47;;
19030;SDS011;9648;51.130;13.978;2023-04-15T00:18:20;2.88;;;2.50;;
19030;SDS011;9648;51.130;13.978;2023-04-15T00:20:47;2.90;;;2.60;;
19030;SDS011;9648;51.130;13.978;2023-04-15T00:23:14;3.47;;;2.42;;
19030;SDS011;9648;51.130;13.978;2023-04-15T00:25:40;3.13;;;2.60;;
19030;SDS011;9648;51.130;13.978;2023-04-15T00:28:08;2.83;;;2.53;;
19030;SDS011;9648;51.130;13.978;2023-04-15T00:30:35;2.97;;;2.60;;
19030;SDS011;9648;51.130;13.978;2023-04-15T00:33:03;2.30;;;2.00;;
19030;SDS011;9648;51.130;13.978;2023-04-15T00:35:29;2.90;;;2.60;;
19030;SDS011;9648;51.130;13.978;2023-04-15T00:37:56;2.20;;;2.00;;
19030;SDS011;9648;51.130;13.978;2023-04-15T00:40:23;2.77;;;2.50;;
19030;SDS011;9648;51.130;13.978;2023-04-15T00:42:51;2.70;;;2.50;;
19030;SDS011;9648;51.130;13.978;2023-04-15T00:45:20;2.60;;;2.28;;
19030;SDS011;9648;51.130;13.978;2023-04-15T00:47:48;3.17;;;2.30;;
19030;SDS011;9648;51.130;13.978;2023-04-15T00:50:15;2.53;;;2.30;;
19030;SDS011;9648;51.130;13.978;2023-04-15T00:52:42;2.27;;;2.07;;
19030;SDS011;9648;51.130;13.978;2023-04-15T00:55:09;2.67;;;2.47;;
19030;SDS011;9648;51.130;13.978;2023-04-15T00:57:36;2.67;;;2.47;;
19030;SDS011;9648;51.130;13.978;2023-04-15T01:00:04;2.42;;;2.22;;
19030;SDS011;9648;51.130;13.978;2023-04-15T01:02:34;2.75;;;2.55;;
19030;SDS011;9648;51.130;13.978;2023-04-15T01:05:01;2.80;;;2.60;;
19030;SDS011;9648;51.130;13.978;2023-04-15T01:07:29;3.00;;;2.50;;
19030;SDS011;9648;51.130;13.978;2023-04-15T01:09:55;3.15;;;2.70;;
19030;SDS011;9648;51.130;13.978;2023-04-15T01:12:23;3.25;;;2.78;;
19030;SDS011;9648;51.130;13.978;2023-04-15T01:14:51;3.60;;;2.78;;
19030;SDS011;9648;51.130;13.978;2023-04-15T01:17:18;3.10;;;2.80;;
19030;SDS011;9648;51.130;13.978;2023-04-15T01:19:46;3.10;;;2.80;;
19030;SDS011;9648;51.130;13.978;2023-04-15T01:22:13;4.50;;;2.78;;
19030;SDS011;9648;51.130;13.978;2023-04-15T01:24:40;3.30;;;2.90;;
19030;SDS011;9648;51.130;13.978;2023-04-15T01:27:17;3.30;;;2.95;;
19030;SDS011;9648;51.130;13.978;2023-04-15T01:29:44;3.40;;;2.97;;
19030;SDS011;9648;51.130;13.978;2023-04-15T01:32:11;3.00;;;2.70;;
19030;SDS011;9648;51.130;13.978;2023-04-15T01:34:38;5.97;;;4.22;;
19030;SDS011;9648;51.130;13.978;2023-04-15T01:37:04;4.57;;;3.45;;
19030;SDS011;9648;51.130;13.978;2023-04-15T01:39:31;6.15;;;4.60;;
19030;SDS011;9648;51.130;13.978;2023-04-15T01:41:58;3.10;;;2.80;;
19030;SDS011;9648;51.130;13.978;2023-04-15T01:44:26;3.17;;;2.80;;
19030;SDS011;9648;51.130;13.978;2023-04-15T01:46:53;4.63;;;2.90;;
19030;SDS011;9648;51.130;13.978;2023-04-15T01:49:19;4.70;;;3.38;;
19030;SDS011;9648;51.130;13.978;2023-04-15T01:51:46;3.80;;;2.88;;
19030;SDS011;9648;51.130;13.978;2023-04-15T01:54:13;5.20;;;3.27;;
19030;SDS011;9648;51.130;13.978;2023-04-15T01:56:40;3.00;;;2.70;;
19030;SDS011;9648;51.130;13.978;2023-04-15T01:59:06;4.43;;;2.70;;
19030;SDS011;9648;51.130;13.978;2023-04-15T02:01:35;3.72;;;2.60;;
19030;SDS011;9648;51.130;13.978;2023-04-15T02:04:02;2.80;;;2.50;;
19030;SDS011;9648;51.130;13.978;2023-04-15T02:06:28;2.70;;;2.50;;
19030;SDS011;9648;51.130;13.978;2023-04-15T02:08:55;2.83;;;2.63;;
19030;SDS011;9648;51.130;13.978;2023-04-15T02:11:22;2.70;;;2.50;;
19030;SDS011;9648;51.130;13.978;2023-04-15T02:13:49;3.58;;;2.58;;
19030;SDS011;9648;51.130;13.978;2023-04-15T02:16:16;3.05;;;2.78;;
19030;SDS011;9648;51.130;13.978;2023-04-15T02:18:45;3.67;;;2.90;;
19030;SDS011;9648;51.130;13.978;2023-04-15T02:21:12;3.25;;;2.95;;
19030;SDS011;9648;51.130;13.978;2023-04-15T02:23:39;3.22;;;2.75;;
19030;SDS011;9648;51.130;13.978;2023-04-15T02:26:05;3.58;;;3.00;;
19030;SDS011;9648;51.130;13.978;2023-04-15T02:28:32;3.72;;;3.30;;
19030;SDS011;9648;51.130;13.978;2023-04-15T02:30:59;3.00;;;2.70;;
19030;SDS011;9648;51.130;13.978;2023-04-15T02:33:30;3.10;;;2.80;;
19030;SDS011;9648;51.130;13.978;2023-04-15T02:35:58;3.10;;;2.80;;
19030;SDS011;9648;51.130;13.978;2023-04-15T02:38:25;3.28;;;2.90;;
19030;SDS011;9648;51.130;13.978;2023-04-15T02:40:52;3.17;;;2.83;;
19030;SDS011;9648;51.130;13.978;2023-04-15T02:43:18;3.15;;;2.88;;
19030;SDS011;9648;51.130;13.978;2023-04-15T02:45:45;3.28;;;2.60;;
19030;SDS011;9648;51.130;13.978;2023-04-15T02:48:12;3.10;;;2.60;;
19030;SDS011;9648;51.130;13.978;2023-04-15T02:50:38;2.85;;;2.60;;
19030;SDS011;9648;51.130;13.978;2023-04-15T02:53:07;4.38;;;2.75;;
19030;SDS011;9648;51.130;13.978;2023-04-15T02:55:33;4.38;;;3.00;;
19030;SDS011;9648;51.130;13.978;2023-04-15T02:58:00;3.60;;;3.30;;
19030;SDS011;9648;51.130;13.978;2023-04-15T03:00:27;3.17;;;2.88;;
19030;SDS011;9648;51.130;13.978;2023-04-15T03:02:56;4.13;;;2.88;;
19030;SDS011;9648;51.130;13.978;2023-04-15T03:05:27;3.15;;;2.85;;
19030;SDS011;9648;51.130;13.978;2023-04-15T03:07:53;4.72;;;3.30;;
19030;SDS011;9648;51.130;13.978;2023-04-15T03:10:21;4.57;;;3.33;;
19030;SDS011;9648;51.130;13.978;2023-04-15T03:12:48;3.53;;;3.08;;
19030;SDS011;9648;51.130;13.978;2023-04-15T03:15:15;18.88;;;3.90;;
19030;SDS011;9648;51.130;13.978;2023-04-15T03:17:42;16.45;;;3.90;;
19030;SDS011;9648;51.130;13.978;2023-04-15T03:20:08;5.97;;;3.95;;
19030;SDS011;9648;51.130;13.978;2023-04-15T03:22:35;6.00;;;3.30;;
19030;SDS011;9648;51.130;13.978;2023-04-15T03:25:02;13.13;;;3.87;;
19030;SDS011;9648;51.130;13.978;2023-04-15T03:27:30;23.73;;;4.18;;
19030;SDS011;9648;51.130;13.978;2023-04-15T03:29:57;7.35;;;4.00;;
19030;SDS011;9648;51.130;13.978;2023-04-15T03:32:24;18.47;;;4.43;;
19030;SDS011;9648;51.130;13.978;2023-04-15T03:34:51;10.02;;;4.20;;
19030;SDS011;9648;51.130;13.978;2023-04-15T03:37:17;21.35;;;4.22;;
19030;SDS011;9648;51.130;13.978;2023-04-15T03:39:44;12.70;;;3.60;;
19030;SDS011;9648;51.130;13.978;2023-04-15T03:42:14;15.27;;;3.92;;
19030;SDS011;9648;51.130;13.978;2023-04-15T03:44:42;44.55;;;4.80;;
19030;SDS011;9648;51.130;13.978;2023-04-15T03:47:12;10.43;;;4.45;;
19030;SDS011;9648;51.130;13.978;2023-04-15T03:49:41;80.33;;;5.97;;
19030;SDS011;9648;51.130;13.978;2023-04-15T03:52:08;8.35;;;3.78;;
19030;SDS011;9648;51.130;13.978;2023-04-15T03:54:35;39.70;;;5.40;;
19030;SDS011;9648;51.130;13.978;2023-04-15T03:57:03;16.83;;;4.60;;
19030;SDS011;9648;51.130;13.978;2023-04-15T03:59:30;18.90;;;4.53;;
19030;SDS011;9648;51.130;13.978;2023-04-15T04:01:58;29.13;;;4.88;;
19030;SDS011;9648;51.130;13.978;2023-04-15T04:04:25;21.67;;;4.88;;
19030;SDS011;9648;51.130;13.978;2023-04-15T04:06:51;12.35;;;4.07;;
19030;SDS011;9648;51.130;13.978;2023-04-15T04:09:18;48.67;;;5.88;;
19030;SDS011;9648;51.130;13.978;2023-04-15T04:11:45;98.15;;;7.13;;
19030;SDS011;9648;51.130;13.978;2023-04-15T04:14:14;84.40;;;7.13;;
19030;SDS011;9648;51.130;13.978;2023-04-15T04:16:41;110.93;;;6.70;;
19030;SDS011;9648;51.130;13.978;2023-04-15T04:19:12;127.75;;;7.13;;
19030;SDS011;9648;51.130;13.978;2023-04-15T04:21:43;52.53;;;5.70;;
19030;SDS011;9648;51.130;13.978;2023-04-15T04:24:13;10.43;;;4.28;;
19030;SDS011;9648;51.130;13.978;2023-04-15T04:26:40;27.33;;;4.28;;
19030;SDS011;9648;51.130;13.978;2023-04-15T04:29:07;62.28;;;5.55;;
19030;SDS011;9648;51.130;13.978;2023-04-15T04:31:33;16.00;;;4.55;;
19030;SDS011;9648;51.130;13.978;2023-04-15T04:34:00;22.52;;;4.50;;
19030;SDS011;9648;51.130;13.978;2023-04-15T04:36:28;4.18;;;3.78;;
19030;SDS011;9648;51.130;13.978;2023-04-15T04:38:55;16.98;;;4.13;;
19030;SDS011;9648;51.130;13.978;2023-04-15T04:41:21;9.00;;;4.05;;
19030;SDS011;9648;51.130;13.978;2023-04-15T04:43:51;3.90;;;3.50;;
19030;SDS011;9648;51.130;13.978;2023-04-15T04:46:18;5.65;;;3.85;;
19030;SDS011;9648;51.130;13.978;2023-04-15T04:48:45;15.52;;;5.10;;
19030;SDS011;9648;51.130;13.978;2023-04-15T04:51:11;7.35;;;3.90;;
19030;SDS011;9648;51.130;13.978;2023-04-15T04:53:42;6.28;;;4.10;;
19030;SDS011;9648;51.130;13.978;2023-04-15T04:56:09;7.87;;;4.20;;
19030;SDS011;9648;51.130;13.978;2023-04-15T04:58:36;7.70;;;3.97;;
19030;SDS011;9648;51.130;13.978;2023-04-15T05:01:03;6.40;;;4.20;;
19030;SDS011;9648;51.130;13.978;2023-04-15T05:03:30;4.15;;;3.55;;
19030;SDS011;9648;51.130;13.978;2023-04-15T05:05:56;7.32;;;3.40;;
19030;SDS011;9648;51.130;13.978;2023-04-15T05:08:23;8.60;;;4.20;;
19030;SDS011;9648;51.130;13.978;2023-04-15T05:10:51;4.43;;;3.70;;
19030;SDS011;9648;51.130;13.978;2023-04-15T05:13:18;5.88;;;3.72;;
19030;SDS011;9648;51.130;13.978;2023-04-15T05:15:45;5.05;;;3.90;;
19030;SDS011;9648;51.130;13.978;2023-04-15T05:18:12;4.55;;;3.70;;
19030;SDS011;9648;51.130;13.978;2023-04-15T05:20:39;4.18;;;3.70;;
19030;SDS011;9648;51.130;13.978;2023-04-15T05:23:05;4.85;;;4.00;;
19030;SDS011;9648;51.130;13.978;2023-04-15T05:25:32;4.45;;;3.58;;
19030;SDS011;9648;51.130;13.978;2023-04-15T05:28:00;6.13;;;3.87;;
19030;SDS011;9648;51.130;13.978;2023-04-15T05:30:27;4.90;;;4.07;;
19030;SDS011;9648;51.130;13.978;2023-04-15T05:32:57;5.65;;;4.10;;
19030;SDS011;9648;51.130;13.978;2023-04-15T05:35:23;5.10;;;3.20;;
19030;SDS011;9648;51.130;13.978;2023-04-15T05:37:51;5.22;;;3.20;;
19030;SDS011;9648;51.130;13.978;2023-04-15T05:40:17;3.88;;;3.30;;
19030;SDS011;9648;51.130;13.978;2023-04-15T05:42:45;4.22;;;3.17;;
19030;SDS011;9648;51.130;13.978;2023-04-15T05:45:13;3.47;;;3.17;;
19030;SDS011;9648;51.130;13.978;2023-04-15T05:47:39;2.80;;;2.50;;
19030;SDS011;9648;51.130;13.978;2023-04-15T05:50:06;3.75;;;2.60;;
19030;SDS011;9648;51.130;13.978;2023-04-15T05:52:33;2.58;;;2.30;;
19030;SDS011;9648;51.130;13.978;2023-04-15T05:55:00;2.65;;;2.40;;
19030;SDS011;9648;51.130;13.978;2023-04-15T05:57:27;3.47;;;2.90;;
19030;SDS011;9648;51.130;13.978;2023-04-15T05:59:53;3.10;;;2.80;;
19030;SDS011;9648;51.130;13.978;2023-04-15T06:02:25;3.38;;;2.58;;
19030;SDS011;9648;51.130;13.978;2023-04-15T06:04:52;3.10;;;2.60;;
19030;SDS011;9648;51.130;13.978;2023-04-15T06:07:18;3.27;;;2.57;;
19030;SDS011;9648;51.130;13.978;2023-04-15T06:09:45;2.97;;;2.53;;
19030;SDS011;9648;51.130;13.978;2023-04-15T06:12:12;3.47;;;2.60;;
19030;SDS011;9648;51.130;13.978;2023-04-15T06:14:39;5.20;;;2.97;;
19030;SDS011;9648;51.130;13.978;2023-04-15T06:17:06;3.50;;;2.95;;
19030;SDS011;9648;51.130;13.978;2023-04-15T06:19:34;2.97;;;2.67;;
19030;SDS011;9648;51.130;13.978;2023-04-15T06:22:01;3.60;;;2.90;;
19030;SDS011;9648;51.130;13.978;2023-04-15T06:24:28;4.10;;;3.40;;
19030;SDS011;9648;51.130;13.978;2023-04-15T06:26:55;3.33;;;3.03;;
19030;SDS011;9648;51.130;13.978;2023-04-15T06:29:22;3.50;;;3.20;;
19030;SDS011;9648;51.130;13.978;2023-04-15T06:31:48;3.95;;;3.25;;
19030;SDS011;9648;51.130;13.978;2023-04-15T06:34:16;3.55;;;3.25;;
19030;SDS011;9648;51.130;13.978;2023-04-15T06:36:44;3.90;;;3.15;;
19030;SDS011;9648;51.130;13.978;2023-04-15T06:39:13;3.60;;;3.03;;
19030;SDS011;9648;51.130;13.978;2023-04-15T06:41:40;3.83;;;3.10;;
19030;SDS011;9648;51.130;13.978;2023-04-15T06:44:07;2.60;;;2.38;;
19030;SDS011;9648;51.130;13.978;2023-04-15T06:46:34;3.40;;;2.67;;
19030;SDS011;9648;51.130;13.978;2023-04-15T06:49:00;2.80;;;2.50;;
19030;SDS011;9648;51.130;13.978;2023-04-15T06:51:27;4.33;;;2.47;;
19030;SDS011;9648;51.130;13.978;2023-04-15T06:53:59;2.83;;;2.55;;
19030;SDS011;9648;51.130;13.978;2023-04-15T06:56:26;2.88;;;1.83;;
19030;SDS011;9648;51.130;13.978;2023-04-15T06:58:56;2.67;;;2.08;;
19030;SDS011;9648;51.130;13.978;2023-04-15T07:01:22;2.70;;;2.20;;
19030;SDS011;9648;51.130;13.978;2023-04-15T07:03:50;3.75;;;2.30;;
19030;SDS011;9648;51.130;13.978;2023-04-15T07:06:16;2.70;;;2.30;;
19030;SDS011;9648;51.130;13.978;2023-04-15T07:08:46;2.95;;;2.40;;
19030;SDS011;9648;51.130;13.978;2023-04-15T07:11:15;3.38;;;2.55;;
19030;SDS011;9648;51.130;13.978;2023-04-15T07:13:41;2.95;;;2.65;;
19030;SDS011;9648;51.130;13.978;2023-04-15T07:16:08;3.22;;;2.78;;
19030;SDS011;9648;51.130;13.978;2023-04-15T07:18:35;3.65;;;2.50;;
19030;SDS011;9648;51.130;13.978;2023-04-15T07:21:01;3.50;;;2.70;;
19030;SDS011;9648;51.130;13.978;2023-04-15T07:23:28;2.75;;;2.55;;
19030;SDS011;9648;51.130;13.978;2023-04-15T07:25:58;3.50;;;2.47;;
19030;SDS011;9648;51.130;13.978;2023-04-15T07:28:26;3.55;;;2.30;;
19030;SDS011;9648;51.130;13.978;2023-04-15T07:30:56;2.25;;;1.92;;
19030;SDS011;9648;51.130;13.978;2023-04-15T07:33:26;2.47;;;1.92;;
19030;SDS011;9648;51.130;13.978;2023-04-15T07:35:53;2.30;;;1.70;;
19030;SDS011;9648;51.130;13.978;2023-04-15T07:38:20;2.45;;;1.58;;
19030;SDS011;9648;51.130;13.978;2023-04-15T07:40:47;2.30;;;1.67;;
19030;SDS011;9648;51.130;13.978;2023-04-15T07:43:13;1.58;;;1.40;;
19030;SDS011;9648;51.130;13.978;2023-04-15T07:45:47;2.17;;;1.40;;
19030;SDS011;9648;51.130;13.978;2023-04-15T07:48:17;2.40;;;1.73;;
19030;SDS011;9648;51.130;13.978;2023-04-15T07:50:44;1.90;;;1.60;;
19030;SDS011;9648;51.130;13.978;2023-04-15T07:53:11;2.30;;;2.08;;
19030;SDS011;9648;51.130;13.978;2023-04-15T07:55:38;2.83;;;1.90;;
19030;SDS011;9648;51.130;13.978;2023-04-15T07:58:05;2.17;;;1.60;;
19030;SDS011;9648;51.130;13.978;2023-04-15T08:00:32;2.33;;;1.80;;
19030;SDS011;9648;51.130;13.978;2023-04-15T08:03:00;2.40;;;1.60;;
19030;SDS011;9648;51.130;13.978;2023-04-15T08:05:27;3.00;;;1.60;;
19030;SDS011;9648;51.130;13.978;2023-04-15T08:07:53;1.58;;;1.30;;
19030;SDS011;9648;51.130;13.978;2023-04-15T08:10:20;1.77;;;1.42;;
19030;SDS011;9648;51.130;13.978;2023-04-15T08:12:47;2.25;;;1.30;;
19030;SDS011;9648;51.130;13.978;2023-04-15T08:15:14;3.40;;;2.50;;
19030;SDS011;9648;51.130;13.978;2023-04-15T08:17:41;4.20;;;3.80;;
19030;SDS011;9648;51.130;13.978;2023-04-15T08:20:10;4.80;;;4.13;;
19030;SDS011;9648;51.130;13.978;2023-04-15T08:22:37;5.25;;;4.75;;
19030;SDS011;9648;51.130;13.978;2023-04-15T08:25:04;5.63;;;5.13;;
19030;SDS011;9648;51.130;13.978;2023-04-15T08:27:31;5.82;;;5.22;;
19030;SDS011;9648;51.130;13.978;2023-04-15T08:29:57;6.25;;;5.65;;
19030;SDS011;9648;51.130;13.978;2023-04-15T08:32:24;5.88;;;5.38;;
19030;SDS011;9648;51.130;13.978;2023-04-15T08:34:51;7.05;;;5.30;;
19030;SDS011;9648;51.130;13.978;2023-04-15T08:37:19;6.50;;;5.90;;
19030;SDS011;9648;51.130;13.978;2023-04-15T08:39:47;7.70;;;6.90;;
19030;SDS011;9648;51.130;13.978;2023-04-15T08:42:17;8.98;;;6.90;;
19030;SDS011;9648;51.130;13.978;2023-04-15T08:44:48;7.07;;;6.38;;
19030;SDS011;9648;51.130;13.978;2023-04-15T08:47:16;6.63;;;5.60;;
19030;SDS011;9648;51.130;13.978;2023-04-15T08:49:46;6.32;;;5.65;;
19030;SDS011;9648;51.130;13.978;2023-04-15T08:52:17;7.43;;;6.13;;
19030;SDS011;9648;51.130;13.978;2023-04-15T08:54:46;7.13;;;6.43;;
19030;SDS011;9648;51.130;13.978;2023-04-15T08:57:13;7.20;;;6.50;;
19030;SDS011;9648;51.130;13.978;2023-04-15T08:59:41;7.90;;;6.05;;
19030;SDS011;9648;51.130;13.978;2023-04-15T09:02:08;6.63;;;6.00;;
19030;SDS011;9648;51.130;13.978;2023-04-15T09:04:35;6.40;;;5.80;;
19030;SDS011;9648;51.130;13.978;2023-04-15T09:07:02;6.43;;;5.78;;
19030;SDS011;9648;51.130;13.978;2023-04-15T09:09:30;7.18;;;5.53;;
19030;SDS011;9648;51.130;13.978;2023-04-15T09:11:57;6.53;;;5.25;;
19030;SDS011;9648;51.130;13.978;2023-04-15T09:14:26;6.00;;;5.22;;
19030;SDS011;9648;51.130;13.978;2023-04-15T09:16:56;5.50;;;5.00;;
19030;SDS011;9648;51.130;13.978;2023-04-15T09:19:24;5.65;;;4.93;;
19030;SDS011;9648;51.130;13.978;2023-04-15T09:21:52;5.50;;;5.00;;
19030;SDS011;9648;51.130;13.978;2023-04-15T09:24:20;5.18;;;4.68;;
19030;SDS011;9648;51.130;13.978;2023-04-15T09:26:50;4.97;;;4.47;;
19030;SDS011;9648;51.130;13.978;2023-04-15T09:29:17;5.05;;;4.55;;
19030;SDS011;9648;51.130;13.978;2023-04-15T09:31:44;4.43;;;4.03;;
19030;SDS011;9648;51.130;13.978;2023-04-15T09:34:11;5.15;;;4.57;;
19030;SDS011;9648;51.130;13.978;2023-04-15T09:36:40;5.38;;;4.88;;
19030;SDS011;9648;51.130;13.978;2023-04-15T09:39:17;5.88;;;4.25;;
19030;SDS011;9648;51.130;13.978;2023-04-15T09:41:44;5.57;;;3.88;;
19030;SDS011;9648;51.130;13.978;2023-04-15T09:44:22;3.87;;;3.47;;
19030;SDS011;9648;51.130;13.978;2023-04-15T09:46:49;4.68;;;3.60;;
19030;SDS011;9648;51.130;13.978;2023-04-15T09:49:16;3.47;;;3.17;;
19030;SDS011;9648;51.130;13.978;2023-04-15T09:51:43;3.67;;;3.08;;
19030;SDS011;9648;51.130;13.978;2023-04-15T09:54:10;3.28;;;2.97;;
19030;SDS011;9648;51.130;13.978;2023-04-15T09:56:37;3.80;;;3.27;;
19030;SDS011;9648;51.130;13.978;2023-04-15T09:59:06;2.80;;;2.60;;
19030;SDS011;9648;51.130;13.978;2023-04-15T10:01:34;3.17;;;2.80;;
19030;SDS011;9648;51.130;13.978;2023-04-15T10:04:02;4.20;;;2.30;;
19030;SDS011;9648;51.130;13.978;2023-04-15T10:06:30;2.60;;;2.40;;
19030;SDS011;9648;51.130;13.978;2023-04-15T10:08:57;2.30;;;2.10;;
19030;SDS011;9648;51.130;13.978;2023-04-15T10:11:25;2.50;;;1.90;;
19030;SDS011;9648;51.130;13.978;2023-04-15T10:13:54;2.13;;;1.60;;
19030;SDS011;9648;51.130;13.978;2023-04-15T10:16:22;2.35;;;1.50;;
19030;SDS011;9648;51.130;13.978;2023-04-15T10:18:54;1.70;;;1.60;;
19030;SDS011;9648;51.130;13.978;2023-04-15T10:21:22;1.60;;;1.50;;
19030;SDS011;9648;51.130;13.978;2023-04-15T10:23:50;3.40;;;1.30;;
19030;SDS011;9648;51.130;13.978;2023-04-15T10:26:19;1.70;;;1.60;;
19030;SDS011;9648;51.130;13.978;2023-04-15T10:28:47;1.40;;;1.30;;
19030;SDS011;9648;51.130;13.978;2023-04-15T10:31:14;2.03;;;1.35;;
19030;SDS011;9648;51.130;13.978;2023-04-15T10:33:42;1.50;;;1.40;;
19030;SDS011;9648;51.130;13.978;2023-04-15T10:36:12;1.60;;;1.48;;
19030;SDS011;9648;51.130;13.978;2023-04-15T10:38:40;2.85;;;1.40;;
19030;SDS011;9648;51.130;13.978;2023-04-15T10:41:11;2.17;;;1.67;;
19030;SDS011;9648;51.130;13.978;2023-04-15T10:43:39;1.70;;;1.60;;
19030;SDS011;9648;51.130;13.978;2023-04-15T10:46:11;2.22;;;1.63;;
19030;SDS011;9648;51.130;13.978;2023-04-15T10:48:45;2.00;;;1.30;;
19030;SDS011;9648;51.130;13.978;2023-04-15T10:51:14;1.60;;;1.40;;
19030;SDS011;9648;51.130;13.978;2023-04-15T10:53:41;2.10;;;1.40;;
19030;SDS011;9648;51.130;13.978;2023-04-15T10:56:08;1.67;;;1.30;;
19030;SDS011;9648;51.130;13.978;2023-04-15T10:58:40;1.67;;;1.30;;
19030;SDS011;9648;51.130;13.978;2023-04-15T11:01:07;2.00;;;1.40;;
19030;SDS011;9648;51.130;13.978;2023-04-15T11:03:35;1.40;;;1.20;;
19030;SDS011;9648;51.130;13.978;2023-04-15T11:06:03;1.92;;;1.10;;
19030;SDS011;9648;51.130;13.978;2023-04-15T11:08:54;1.30;;;0.90;;
19030;SDS011;9648;51.130;13.978;2023-04-15T11:11:23;1.67;;;0.93;;
19030;SDS011;9648;51.130;13.978;2023-04-15T11:14:24;1.38;;;1.10;;
19030;SDS011;9648;51.130;13.978;2023-04-15T11:17:10;2.15;;;1.10;;
19030;SDS011;9648;51.130;13.978;2023-04-15T11:19:37;1.73;;;1.10;;
19030;SDS011;9648;51.130;13.978;2023-04-15T11:22:22;1.23;;;1.10;;
19030;SDS011;9648;51.130;13.978;2023-04-15T11:24:53;1.90;;;1.00;;
19030;SDS011;9648;51.130;13.978;2023-04-15T11:27:20;1.30;;;1.10;;
19030;SDS011;9648;51.130;13.978;2023-04-15T11:30:16;1.88;;;1.15;;
19030;SDS011;9648;51.130;13.978;2023-04-15T11:33:04;2.30;;;1.30;;
19030;SDS011;9648;51.130;13.978;2023-04-15T11:35:51;1.10;;;1.00;;
19030;SDS011;9648;51.130;13.978;2023-04-15T11:38:41;1.30;;;1.08;;
19030;SDS011;9648;51.130;13.978;2023-04-15T11:41:28;1.33;;;1.10;;
19030;SDS011;9648;51.130;13.978;2023-04-15T11:44:16;1.33;;;1.00;;
19030;SDS011;9648;51.130;13.978;2023-04-15T11:47:19;2.05;;;1.10;;
19030;SDS011;9648;51.130;13.978;2023-04-15T11:50:13;1.70;;;0.90;;
19030;SDS011;9648;51.130;13.978;2023-04-15T11:52:40;0.90;;;0.80;;
19030;SDS011;9648;51.130;13.978;2023-04-15T11:55:17;3.47;;;1.00;;
19030;SDS011;9648;51.130;13.978;2023-04-15T11:57:45;1.23;;;0.90;;
19030;SDS011;9648;51.130;13.978;2023-04-15T12:00:12;1.70;;;0.80;;
19030;SDS011;9648;51.130;13.978;2023-04-15T12:02:41;1.73;;;0.90;;
19030;SDS011;9648;51.130;13.978;2023-04-15T12:05:08;1.20;;;0.80;;
19030;SDS011;9648;51.130;13.978;2023-04-15T12:07:57;1.70;;;0.90;;
19030;SDS011;9648;51.130;13.978;2023-04-15T12:10:24;1.30;;;0.80;;
19030;SDS011;9648;51.130;13.978;2023-04-15T12:12:52;1.00;;;0.70;;
19030;SDS011;9648;51.130;13.978;2023-04-15T12:15:20;1.42;;;0.70;;
19030;SDS011;9648;51.130;13.978;2023-04-15T12:17:48;2.90;;;0.70;;
19030;SDS011;9648;51.130;13.978;2023-04-15T12:20:20;0.77;;;0.70;;
19030;SDS011;9648;51.130;13.978;2023-04-15T12:22:50;0.85;;;0.70;;
19030;SDS011;9648;51.130;13.978;2023-04-15T12:25:17;3.47;;;1.02;;
19030;SDS011;9648;51.130;13.978;2023-04-15T12:27:50;1.23;;;0.70;;
19030;SDS011;9648;51.130;13.978;2023-04-15T12:30:18;1.25;;;0.80;;
19030;SDS011;9648;51.130;13.978;2023-04-15T12:32:45;1.27;;;0.75;;
19030;SDS011;9648;51.130;13.978;2023-04-15T12:35:12;0.80;;;0.70;;
19030;SDS011;9648;51.130;13.978;2023-04-15T12:37:39;3.40;;;0.70;;
19030;SDS011;9648;51.130;13.978;2023-04-15T12:40:07;1.80;;;0.80;;
19030;SDS011;9648;51.130;13.978;2023-04-15T12:42:34;1.50;;;0.80;;
19030;SDS011;9648;51.130;13.978;2023-04-15T12:45:01;0.75;;;0.75;;
19030;SDS011;9648;51.130;13.978;2023-04-15T12:47:29;1.33;;;0.70;;
19030;SDS011;9648;51.130;13.978;2023-04-15T12:49:55;1.93;;;0.70;;
19030;SDS011;9648;51.130;13.978;2023-04-15T12:52:22;2.35;;;0.82;;
19030;SDS011;9648;51.130;13.978;2023-04-15T12:54:49;1.70;;;0.90;;
19030;SDS011;9648;51.130;13.978;2023-04-15T12:57:16;0.82;;;0.80;;
19030;SDS011;9648;51.130;13.978;2023-04-15T12:59:42;1.40;;;0.77;;
19030;SDS011;9648;51.130;13.978;2023-04-15T13:02:09;1.40;;;0.87;;
19030;SDS011;9648;51.130;13.978;2023-04-15T13:04:37;1.80;;;0.68;;
19030;SDS011;9648;51.130;13.978;2023-04-15T13:07:04;0.93;;;0.82;;
19030;SDS011;9648;51.130;13.978;2023-04-15T13:09:30;1.60;;;1.00;;
19030;SDS011;9648;51.130;13.978;2023-04-15T13:11:57;1.38;;;1.05;;
19030;SDS011;9648;51.130;13.978;2023-04-15T13:14:24;1.08;;;0.80;;
19030;SDS011;9648;51.130;13.978;2023-04-15T13:16:51;1.02;;;0.80;;
19030;SDS011;9648;51.130;13.978;2023-04-15T13:19:17;2.13;;;0.80;;
19030;SDS011;9648;51.130;13.978;2023-04-15T13:21:48;1.57;;;0.70;;
19030;SDS011;9648;51.130;13.978;2023-04-15T13:24:15;1.50;;;0.87;;
19030;SDS011;9648;51.130;13.978;2023-04-15T13:26:42;1.10;;;0.90;;
19030;SDS011;9648;51.130;13.978;2023-04-15T13:29:08;1.20;;;0.93;;
19030;SDS011;9648;51.130;13.978;2023-04-15T13:31:36;2.30;;;0.88;;
19030;SDS011;9648;51.130;13.978;2023-04-15T13:34:02;1.50;;;1.10;;
19030;SDS011;9648;51.130;13.978;2023-04-15T13:36:29;1.33;;;1.10;;
19030;SDS011;9648;51.130;13.978;2023-04-15T13:38:58;2.40;;;1.08;;
19030;SDS011;9648;51.130;13.978;2023-04-15T13:41:25;1.08;;;0.80;;
19030;SDS011;9648;51.130;13.978;2023-04-15T13:43:52;1.85;;;0.80;;
19030;SDS011;9648;51.130;13.978;2023-04-15T13:46:18;2.00;;;0.80;;
19030;SDS011;9648;51.130;13.978;2023-04-15T13:48:45;1.55;;;1.00;;
19030;SDS011;9648;51.130;13.978;2023-04-15T13:51:12;1.23;;;0.97;;
19030;SDS011;9648;51.130;13.978;2023-04-15T13:53:39;1.23;;;1.00;;
19030;SDS011;9648;51.130;13.978;2023-04-15T13:56:07;2.53;;;0.87;;
19030;SDS011;9648;51.130;13.978;2023-04-15T13:58:34;1.00;;;0.80;;
19030;SDS011;9648;51.130;13.978;2023-04-15T14:01:01;1.35;;;0.90;;
19030;SDS011;9648;51.130;13.978;2023-04-15T14:03:29;1.75;;;0.85;;
19030;SDS011;9648;51.130;13.978;2023-04-15T14:05:55;1.77;;;0.98;;
19030;SDS011;9648;51.130;13.978;2023-04-15T14:08:23;3.20;;;0.88;;
19030;SDS011;9648;51.130;13.978;2023-04-15T14:10:52;1.10;;;0.90;;
19030;SDS011;9648;51.130;13.978;2023-04-15T14:13:20;1.80;;;0.90;;
19030;SDS011;9648;51.130;13.978;2023-04-15T14:15:47;1.80;;;1.10;;
19030;SDS011;9648;51.130;13.978;2023-04-15T14:18:14;1.45;;;1.00;;
19030;SDS011;9648;51.130;13.978;2023-04-15T14:20:40;2.35;;;1.15;;
19030;SDS011;9648;51.130;13.978;2023-04-15T14:23:07;1.30;;;1.00;;
19030;SDS011;9648;51.130;13.978;2023-04-15T14:25:34;1.73;;;1.10;;
19030;SDS011;9648;51.130;13.978;2023-04-15T14:28:03;1.20;;;1.08;;
19030;SDS011;9648;51.130;13.978;2023-04-15T14:30:31;2.45;;;1.27;;
19030;SDS011;9648;51.130;13.978;2023-04-15T14:32:58;1.60;;;0.90;;
19030;SDS011;9648;51.130;13.978;2023-04-15T14:35:25;1.42;;;1.05;;
19030;SDS011;9648;51.130;13.978;2023-04-15T14:37:52;1.70;;;1.10;;
19030;SDS011;9648;51.130;13.978;2023-04-15T14:40:18;1.83;;;1.48;;
19030;SDS011;9648;51.130;13.978;2023-04-15T14:42:45;1.50;;;1.05;;
19030;SDS011;9648;51.130;13.978;2023-04-15T14:45:15;1.15;;;0.80;;
19030;SDS011;9648;51.130;13.978;2023-04-15T14:47:45;4.65;;;1.20;;
19030;SDS011;9648;51.130;13.978;2023-04-15T14:50:15;1.67;;;1.00;;
19030;SDS011;9648;51.130;13.978;2023-04-15T14:52:44;1.98;;;1.20;;